Time;durP1;ratioP1;P1;durP2;ratioP2;P2;SDS_P1;SDS_P2;PMS_P1;PMS_P2;Temp;Humidity;BMP_temperature;BMP_pressure;BME280_temperature;BME280_humidity;BME280_pressure;Samples;Min_cycle;Max_cycle;Signal;HPM_P1;HPM_P2
2022/03/29 00:01:55;;;;;;;24.77;13.10;;;7.00;99.90;;;;;;5066917;28;20083;-94
2022/03/29 00:04:22;;;;;;;27.30;13.40;;;6.90;99.90;;;;;;5083054;28;20044;-94
2022/03/29 00:06:48;;;;;;;23.60;13.50;;;6.90;99.90;;;;;;5083130;28;20142;-94
2022/03/29 00:09:14;;;;;;;27.30;12.57;;;6.80;99.90;;;;;;5082448;28;20043;-94
2022/03/29 00:11:40;;;;;;;28.77;15.02;;;6.90;99.90;;;;;;5082340;28;20040;-93
2022/03/29 00:14:06;;;;;;;25.45;13.52;;;6.80;99.90;;;;;;5083767;28;20047;-93
2022/03/29 00:16:33;;;;;;;24.88;13.10;;;6.80;99.90;;;;;;5086609;28;20126;-93
2022/03/29 00:18:58;;;;;;;28.75;14.63;;;6.80;99.90;;;;;;5088460;28;20384;-93
2022/03/29 00:21:25;;;;;;;29.55;13.75;;;6.70;99.90;;;;;;5087626;28;20043;-94
2022/03/29 00:23:51;;;;;;;28.02;14.13;;;6.70;99.90;;;;;;5088037;28;20052;-94
2022/03/29 00:26:17;;;;;;;32.70;15.02;;;6.70;99.90;;;;;;5080753;28;20048;-93
2022/03/29 00:28:43;;;;;;;26.05;13.38;;;6.70;99.90;;;;;;5080788;28;20127;-93
2022/03/29 00:31:10;;;;;;;26.95;14.63;;;6.70;99.90;;;;;;5086088;28;20467;-93
2022/03/29 00:33:36;;;;;;;28.02;14.57;;;6.70;99.90;;;;;;5088163;28;20471;-93
2022/03/29 00:36:02;;;;;;;26.30;14.35;;;6.70;99.90;;;;;;5081716;28;20036;-93
2022/03/29 00:38:27;;;;;;;26.02;14.35;;;6.70;99.90;;;;;;5081645;28;20497;-93
2022/03/29 00:40:54;;;;;;;30.00;14.88;;;6.60;99.90;;;;;;5080233;28;20044;-94
2022/03/29 00:43:19;;;;;;;25.27;14.00;;;6.70;99.90;;;;;;5079521;28;20521;-92
2022/03/29 00:45:45;;;;;;;26.13;14.35;;;6.60;99.90;;;;;;5079209;28;20044;-94
2022/03/29 00:48:13;;;;;;;32.90;15.90;;;6.60;99.90;;;;;;5079367;28;20047;-93
2022/03/29 00:50:40;;;;;;;28.30;14.25;;;6.60;99.90;;;;;;5079025;28;20471;-92
2022/03/29 00:53:08;;;;;;;28.83;15.23;;;6.60;99.90;;;;;;5079099;28;20131;-93
2022/03/29 00:55:34;;;;;;;27.77;14.95;;;6.60;99.90;;;;;;5079039;28;20146;-94
2022/03/29 00:58:04;;;;;;;30.35;15.48;;;6.70;99.90;;;;;;5079025;28;20071;-91
2022/03/29 01:00:31;;;;;;;33.63;15.63;;;6.70;99.90;;;;;;5078539;28;20127;-92
2022/03/29 01:02:58;;;;;;;26.35;15.07;;;6.70;99.90;;;;;;5078422;28;20134;-91
2022/03/29 01:05:26;;;;;;;28.85;14.82;;;6.70;99.90;;;;;;5078943;28;20044;-92
2022/03/29 01:07:57;;;;;;;23.60;13.88;;;6.70;99.90;;;;;;5078048;28;20044;-92
2022/03/29 01:10:24;;;;;;;33.65;14.73;;;6.70;99.90;;;;;;5078355;28;20048;-92
2022/03/29 01:12:51;;;;;;;27.98;14.65;;;6.60;99.90;;;;;;5078462;28;20102;-93
2022/03/29 01:15:18;;;;;;;29.35;15.20;;;6.70;99.90;;;;;;5078405;28;20052;-92
2022/03/29 01:17:46;;;;;;;27.00;13.98;;;6.70;99.90;;;;;;5077990;28;20044;-92
2022/03/29 01:20:27;;;;;;;27.88;14.52;;;6.70;99.90;;;;;;5077738;28;20418;-93
2022/03/29 01:22:55;;;;;;;29.58;15.30;;;6.70;99.90;;;;;;5078257;28;20487;-90
2022/03/29 01:25:24;;;;;;;28.65;15.65;;;6.70;99.90;;;;;;5077998;28;20374;-92
2022/03/29 01:27:50;;;;;;;25.02;14.70;;;6.70;99.90;;;;;;5077798;28;20082;-92
2022/03/29 01:30:17;;;;;;;29.60;14.80;;;6.70;99.90;;;;;;5077655;28;20072;-92
2022/03/29 01:32:49;;;;;;;27.17;14.57;;;6.60;99.90;;;;;;5078115;28;20039;-93
2022/03/29 01:35:18;;;;;;;26.38;14.05;;;6.60;99.90;;;;;;5078093;28;20044;-91
2022/03/29 01:37:44;;;;;;;29.25;15.38;;;6.70;99.90;;;;;;5077983;28;20047;-92
2022/03/29 01:40:15;;;;;;;26.98;13.55;;;6.70;99.90;;;;;;5079947;28;20048;-91
2022/03/29 01:42:52;;;;;;;30.63;15.80;;;6.70;99.90;;;;;;5078826;28;20044;-93
2022/03/29 01:45:19;;;;;;;28.98;14.45;;;6.60;99.90;;;;;;5078101;28;20040;-91
2022/03/29 01:47:45;;;;;;;30.88;15.57;;;6.70;99.90;;;;;;5077885;28;20059;-92
2022/03/29 01:50:14;;;;;;;32.45;17.05;;;6.70;99.90;;;;;;5077546;28;20048;-91
2022/03/29 01:52:41;;;;;;;30.35;15.02;;;6.70;99.90;;;;;;5078090;28;20047;-92
2022/03/29 01:55:10;;;;;;;28.45;15.32;;;6.70;99.90;;;;;;5077686;28;20080;-91
2022/03/29 01:57:37;;;;;;;32.33;15.43;;;6.70;99.90;;;;;;5077279;28;20059;-92
2022/03/29 02:02:49;;;;;;;37.38;16.27;;;6.70;99.90;;;;;;5076710;28;20063;-92
2022/03/29 02:05:15;;;;;;;31.10;14.75;;;6.70;99.90;;;;;;5077730;28;20044;-92
2022/03/29 02:07:41;;;;;;;33.03;16.92;;;6.70;99.90;;;;;;5077242;28;20075;-92
2022/03/29 02:10:07;;;;;;;29.02;15.63;;;6.70;99.90;;;;;;5077493;28;20048;-92
2022/03/29 02:12:33;;;;;;;33.85;15.85;;;6.70;99.90;;;;;;5077422;28;20066;-92
2022/03/29 02:14:59;;;;;;;31.55;15.27;;;6.70;99.90;;;;;;5076914;28;20083;-93
2022/03/29 02:17:25;;;;;;;32.72;15.50;;;6.70;99.90;;;;;;5077348;28;20040;-92
2022/03/29 02:19:51;;;;;;;31.52;16.23;;;6.70;99.90;;;;;;5077652;28;20062;-92
2022/03/29 02:22:16;;;;;;;32.88;16.05;;;6.70;99.90;;;;;;5076603;28;20457;-92
2022/03/29 02:24:42;;;;;;;31.80;16.48;;;6.70;99.90;;;;;;5076959;28;20051;-93
2022/03/29 02:27:08;;;;;;;36.25;18.73;;;6.70;99.90;;;;;;5077331;28;20486;-93
2022/03/29 02:29:34;;;;;;;32.55;16.40;;;6.70;99.90;;;;;;5077339;28;20048;-93
2022/03/29 02:32:00;;;;;;;34.25;17.33;;;6.80;99.90;;;;;;5077225;28;20044;-93
2022/03/29 02:34:25;;;;;;;41.10;17.83;;;6.70;99.90;;;;;;5076736;28;20044;-93
2022/03/29 02:36:51;;;;;;;32.45;16.48;;;6.80;99.90;;;;;;5077250;28;20044;-93
2022/03/29 02:39:17;;;;;;;32.65;16.88;;;6.80;99.90;;;;;;5076845;28;20048;-93
2022/03/29 02:41:43;;;;;;;28.55;15.80;;;6.90;99.90;;;;;;5076861;28;20054;-94
2022/03/29 02:44:08;;;;;;;29.73;16.50;;;6.80;99.90;;;;;;5076726;28;20130;-93
2022/03/29 02:46:34;;;;;;;32.78;16.08;;;6.80;99.90;;;;;;5076837;28;20399;-93
2022/03/29 02:49:01;;;;;;;30.48;16.25;;;6.80;99.90;;;;;;5076690;28;20036;-91
2022/03/29 02:51:27;;;;;;;30.15;17.38;;;6.80;99.90;;;;;;5076403;28;20451;-89
2022/03/29 02:53:53;;;;;;;30.83;15.77;;;6.80;99.90;;;;;;5075951;28;20513;-91
2022/03/29 02:56:19;;;;;;;30.77;16.15;;;6.80;99.90;;;;;;5076464;28;20138;-92
2022/03/29 02:58:45;;;;;;;30.60;15.93;;;6.80;99.90;;;;;;5076258;28;20071;-91
2022/03/29 03:01:10;;;;;;;38.90;18.10;;;6.80;99.90;;;;;;5076270;28;20496;-93
2022/03/29 03:03:36;;;;;;;33.13;15.80;;;6.80;99.90;;;;;;5076933;28;20166;-94
2022/03/29 03:06:02;;;;;;;34.88;17.17;;;6.80;99.90;;;;;;5076326;28;20154;-92
2022/03/29 03:08:27;;;;;;;33.35;16.85;;;6.80;99.90;;;;;;5076429;28;20051;-92
2022/03/29 03:10:53;;;;;;;36.78;17.05;;;6.70;99.90;;;;;;5076084;28;20051;-92
2022/03/29 03:13:19;;;;;;;31.55;17.10;;;6.80;99.90;;;;;;5076147;28;20097;-92
2022/03/29 03:15:44;;;;;;;32.63;17.25;;;6.70;99.90;;;;;;5076208;28;20040;-91
2022/03/29 03:18:11;;;;;;;36.30;17.15;;;6.70;99.90;;;;;;5076487;28;20143;-92
2022/03/29 03:20:37;;;;;;;32.25;17.75;;;6.70;99.90;;;;;;5076163;28;20044;-93
2022/03/29 03:23:02;;;;;;;34.60;15.88;;;6.70;99.90;;;;;;5076291;28;20082;-93
2022/03/29 03:25:28;;;;;;;36.65;17.40;;;6.70;99.90;;;;;;5076385;28;20036;-92
2022/03/29 03:27:54;;;;;;;35.08;15.65;;;6.60;99.90;;;;;;5076414;28;20055;-93
2022/03/29 03:30:20;;;;;;;37.13;16.48;;;6.60;99.90;;;;;;5076049;28;20067;-92
2022/03/29 03:32:49;;;;;;;34.65;16.52;;;6.60;99.90;;;;;;5076158;28;20032;-92
2022/03/29 03:35:15;;;;;;;33.35;16.60;;;6.60;99.90;;;;;;5076240;28;20052;-93
2022/03/29 03:37:41;;;;;;;35.00;17.35;;;6.60;99.90;;;;;;5076606;28;20033;-93
2022/03/29 03:40:09;;;;;;;29.58;16.40;;;6.60;99.90;;;;;;5076100;28;20055;-92
2022/03/29 03:42:37;;;;;;;31.83;15.02;;;6.60;99.90;;;;;;5078929;28;20051;-92
2022/03/29 03:45:04;;;;;;;35.85;17.38;;;6.60;99.90;;;;;;5078570;28;20048;-92
2022/03/29 03:47:30;;;;;;;30.27;15.82;;;6.60;99.90;;;;;;5076209;28;20048;-90
2022/03/29 03:49:56;;;;;;;30.58;16.63;;;6.60;99.90;;;;;;5075711;28;20040;-91
2022/03/29 03:52:22;;;;;;;36.40;15.98;;;6.60;99.90;;;;;;5076262;28;20114;-92
2022/03/29 03:54:47;;;;;;;33.47;17.38;;;6.60;99.90;;;;;;5076073;28;20040;-93
2022/03/29 03:57:14;;;;;;;30.52;15.23;;;6.60;99.90;;;;;;5076294;28;20403;-94
2022/03/29 03:59:39;;;;;;;33.90;17.33;;;6.60;99.90;;;;;;5075997;28;20479;-92
2022/03/29 04:02:05;;;;;;;35.00;17.63;;;6.60;99.90;;;;;;5075811;28;20106;-94
2022/03/29 04:04:31;;;;;;;31.90;16.55;;;6.60;99.90;;;;;;5075909;28;20044;-93
2022/03/29 04:06:56;;;;;;;35.05;16.42;;;6.60;99.90;;;;;;5075981;28;20105;-92
2022/03/29 04:09:22;;;;;;;32.55;16.77;;;6.70;99.90;;;;;;5075960;28;20044;-92
2022/03/29 04:11:48;;;;;;;34.65;19.70;;;6.70;99.90;;;;;;5075576;28;20067;-92
2022/03/29 04:14:14;;;;;;;32.95;17.33;;;6.80;99.90;;;;;;5075968;28;20150;-92
2022/03/29 04:16:40;;;;;;;35.88;16.25;;;6.70;99.90;;;;;;5075780;28;20369;-92
2022/03/29 04:19:06;;;;;;;32.88;17.67;;;6.80;99.90;;;;;;5075661;28;20047;-92
2022/03/29 04:21:32;;;;;;;34.42;16.65;;;6.80;99.90;;;;;;5075404;28;20044;-92
2022/03/29 04:23:58;;;;;;;31.00;17.35;;;6.80;99.90;;;;;;5075755;28;20044;-90
2022/03/29 04:26:23;;;;;;;36.90;18.38;;;6.80;99.90;;;;;;5075525;28;20044;-90
2022/03/29 04:28:49;;;;;;;39.03;17.55;;;6.70;99.90;;;;;;5075099;28;20047;-90
2022/03/29 04:31:15;;;;;;;32.78;17.50;;;6.80;99.90;;;;;;5075223;28;20082;-90
2022/03/29 04:33:41;;;;;;;33.85;17.05;;;6.80;99.90;;;;;;5075349;28;20047;-92
2022/03/29 04:36:07;;;;;;;35.58;17.70;;;6.70;99.90;;;;;;5075193;28;20048;-91
2022/03/29 04:38:32;;;;;;;32.22;17.73;;;6.70;99.90;;;;;;5075470;28;20047;-92
2022/03/29 04:40:58;;;;;;;36.35;18.75;;;6.70;99.90;;;;;;5075326;28;20048;-93
2022/03/29 04:43:24;;;;;;;37.65;17.27;;;6.70;99.90;;;;;;5075261;28;20040;-92
2022/03/29 04:45:50;;;;;;;37.85;17.77;;;6.70;99.90;;;;;;5075701;28;20131;-92
2022/03/29 04:48:15;;;;;;;35.72;16.63;;;6.70;99.90;;;;;;5078903;28;20127;-92
2022/03/29 04:50:41;;;;;;;36.35;16.50;;;6.70;99.90;;;;;;5078626;28;20136;-93
2022/03/29 04:53:07;;;;;;;33.60;17.67;;;6.70;99.90;;;;;;5078413;28;20079;-92
2022/03/29 04:55:33;;;;;;;34.20;16.75;;;6.70;99.90;;;;;;5079509;28;20446;-92
2022/03/29 04:58:00;;;;;;;31.90;16.83;;;6.80;99.90;;;;;;5078913;28;20495;-93
2022/03/29 05:00:26;;;;;;;37.15;16.60;;;6.80;99.90;;;;;;5078662;28;20044;-93
2022/03/29 05:02:52;;;;;;;30.15;16.15;;;6.80;99.90;;;;;;5078703;28;20048;-92
2022/03/29 05:05:18;;;;;;;36.53;16.98;;;6.70;99.90;;;;;;5079456;28;20040;-92
2022/03/29 05:07:45;;;;;;;33.85;16.58;;;6.80;99.90;;;;;;5078646;28;20375;-92
2022/03/29 05:10:12;;;;;;;37.20;16.65;;;6.80;99.90;;;;;;5078322;28;20040;-91
2022/03/29 05:12:46;;;;;;;35.17;16.40;;;6.80;99.90;;;;;;5078389;28;20487;-91
2022/03/29 05:15:13;;;;;;;30.58;15.70;;;6.80;99.90;;;;;;5078760;28;20036;-93
2022/03/29 05:17:39;;;;;;;29.67;15.93;;;6.80;99.90;;;;;;5078390;28;20047;-93
2022/03/29 05:20:07;;;;;;;30.30;16.42;;;6.90;99.90;;;;;;5078545;28;20539;-92
2022/03/29 05:22:50;;;;;;;32.15;16.60;;;6.80;99.90;;;;;;5078282;28;20043;-93
2022/03/29 05:25:17;;;;;;;33.90;17.20;;;6.80;99.90;;;;;;5078128;28;20047;-92
2022/03/29 05:27:44;;;;;;;29.85;15.68;;;6.80;99.90;;;;;;5077324;28;20043;-92
2022/03/29 05:30:11;;;;;;;32.67;15.75;;;6.80;99.90;;;;;;5076752;28;20390;-93
2022/03/29 05:32:37;;;;;;;32.95;17.35;;;6.90;99.90;;;;;;5077445;28;20052;-91
2022/03/29 05:35:04;;;;;;;36.40;17.02;;;6.80;99.90;;;;;;5077751;28;20094;-95
2022/03/29 05:37:29;;;;;;;34.60;17.23;;;6.80;99.90;;;;;;5078290;28;20044;-91
2022/03/29 05:39:55;;;;;;;34.40;16.33;;;6.80;99.90;;;;;;5078086;28;20487;-93
2022/03/29 05:42:21;;;;;;;36.58;17.13;;;6.80;99.90;;;;;;5077644;28;20113;-93
2022/03/29 05:44:47;;;;;;;36.33;17.80;;;6.80;99.90;;;;;;5078033;28;20040;-92
2022/03/29 05:49:57;;;;;;;28.83;15.23;;;6.80;99.90;;;;;;5077980;28;20067;-91
2022/03/29 05:52:24;;;;;;;28.70;15.20;;;6.80;99.90;;;;;;5077698;28;20395;-93
2022/03/29 05:54:50;;;;;;;29.67;15.27;;;6.90;99.90;;;;;;5077694;28;20048;-92
2022/03/29 05:57:17;;;;;;;37.45;16.02;;;6.90;99.90;;;;;;5077093;28;20046;-92
2022/03/29 05:59:44;;;;;;;30.40;16.10;;;7.00;99.90;;;;;;5077308;28;20048;-93
2022/03/29 06:02:10;;;;;;;37.03;16.92;;;7.00;99.90;;;;;;5077019;28;20067;-94
2022/03/29 06:04:39;;;;;;;30.80;15.98;;;7.00;99.90;;;;;;5078896;28;20048;-93
2022/03/29 06:07:05;;;;;;;35.95;17.83;;;7.00;99.90;;;;;;5077216;28;20102;-93
2022/03/29 06:09:32;;;;;;;30.77;15.60;;;7.10;99.90;;;;;;5077850;28;20051;-93
2022/03/29 06:11:58;;;;;;;36.28;17.10;;;7.00;99.90;;;;;;5078344;28;20131;-93
2022/03/29 06:14:24;;;;;;;35.03;16.55;;;7.00;99.90;;;;;;5078136;28;20656;-94
2022/03/29 06:16:50;;;;;;;32.45;17.38;;;7.10;99.90;;;;;;5080552;28;20498;-93
2022/03/29 06:19:15;;;;;;;37.08;15.80;;;7.10;99.90;;;;;;5081557;28;20169;-93
2022/03/29 06:21:42;;;;;;;37.50;16.63;;;7.10;99.90;;;;;;5082050;28;20046;-94
2022/03/29 06:24:10;;;;;;;28.88;14.80;;;7.20;99.90;;;;;;5080851;28;20040;-94
2022/03/29 06:26:38;;;;;;;37.20;16.02;;;7.10;99.90;;;;;;5077864;28;20135;-95
2022/03/29 06:29:05;;;;;;;32.92;16.80;;;7.20;99.90;;;;;;5079719;28;20044;-95
2022/03/29 06:31:31;;;;;;;36.47;17.73;;;7.20;99.90;;;;;;5080319;28;20069;-94
2022/03/29 06:33:58;;;;;;;30.83;16.10;;;7.20;99.90;;;;;;5082918;28;20040;-95
2022/03/29 06:36:25;;;;;;;31.10;15.48;;;7.20;99.90;;;;;;5082271;28;20044;-93
2022/03/29 06:38:51;;;;;;;34.75;14.93;;;7.20;99.90;;;;;;5077703;28;20054;-94
2022/03/29 06:41:16;;;;;;;34.80;16.42;;;7.20;99.90;;;;;;5076927;28;20514;-87
2022/03/29 06:43:42;;;;;;;32.72;15.27;;;7.20;99.90;;;;;;5078415;28;20071;-94
2022/03/29 06:46:09;;;;;;;28.27;14.52;;;7.30;99.90;;;;;;5078214;28;20127;-93
2022/03/29 06:48:36;;;;;;;29.05;13.32;;;7.30;99.90;;;;;;5083013;28;20040;-92
2022/03/29 06:51:02;;;;;;;23.70;13.13;;;7.40;99.90;;;;;;5081006;28;20036;-92
2022/03/29 06:53:28;;;;;;;24.30;12.02;;;7.40;99.90;;;;;;5081869;28;20490;-93
2022/03/29 06:55:54;;;;;;;31.50;13.30;;;7.40;99.90;;;;;;5077060;28;20044;-90
2022/03/29 06:58:20;;;;;;;24.58;11.80;;;7.40;99.90;;;;;;5076390;28;20051;-94
2022/03/29 07:00:47;;;;;;;24.45;12.57;;;7.40;99.90;;;;;;5076437;28;20044;-91
2022/03/29 07:03:12;;;;;;;30.70;14.15;;;7.40;99.90;;;;;;5075768;28;20051;-91
2022/03/29 07:05:42;;;;;;;23.65;11.77;;;7.40;99.90;;;;;;5075690;28;20119;-91
2022/03/29 07:08:11;;;;;;;28.27;13.07;;;7.50;99.90;;;;;;5075781;28;20048;-91
2022/03/29 07:13:22;;;;;;;25.48;12.90;;;7.60;99.90;;;;;;5094278;28;20050;-86
2022/03/29 07:15:51;;;;;;;36.20;14.52;;;7.60;99.90;;;;;;5076923;28;20048;-94
2022/03/29 07:18:17;;;;;;;24.58;12.38;;;7.60;99.90;;;;;;5094180;28;20042;-91
2022/03/29 07:20:43;;;;;;;25.42;12.95;;;7.60;99.90;;;;;;5093718;28;20110;-90
2022/03/29 07:23:08;;;;;;;26.08;12.25;;;7.70;99.90;;;;;;5075288;28;20483;-89
2022/03/29 07:25:34;;;;;;;30.92;12.90;;;7.70;99.90;;;;;;5075237;28;20467;-86
2022/03/29 07:28:01;;;;;;;24.35;12.57;;;7.70;99.90;;;;;;5093661;28;20118;-90
2022/03/29 07:30:27;;;;;;;29.67;10.73;;;7.70;99.90;;;;;;5075530;28;20043;-90
2022/03/29 07:32:59;;;;;;;26.05;12.18;;;7.70;99.90;;;;;;5075120;28;20490;-89
2022/03/29 07:35:28;;;;;;;30.83;12.68;;;7.70;99.90;;;;;;5075763;28;20048;-91
2022/03/29 07:37:54;;;;;;;26.30;11.73;;;7.70;99.90;;;;;;5075520;28;20501;-89
2022/03/29 07:40:23;;;;;;;23.27;9.65;;;7.70;99.90;;;;;;5075210;28;20047;-91
2022/03/29 07:42:51;;;;;;;26.63;8.68;;;7.70;99.90;;;;;;5093341;28;20044;-91
2022/03/29 07:45:18;;;;;;;28.30;9.52;;;7.70;99.90;;;;;;5075460;28;20036;-89
2022/03/29 07:47:45;;;;;;;26.75;8.65;;;7.60;99.90;;;;;;5074926;28;20500;-87
2022/03/29 07:50:12;;;;;;;24.55;8.82;;;7.70;99.90;;;;;;5093324;28;20123;-88
2022/03/29 07:52:42;;;;;;;18.02;7.35;;;7.70;99.90;;;;;;5093082;28;20453;-88
2022/03/29 07:55:11;;;;;;;26.02;7.72;;;7.60;99.90;;;;;;5093489;28;20047;-90
2022/03/29 07:57:37;;;;;;;32.78;8.18;;;7.50;99.90;;;;;;5080825;28;20119;-88
2022/03/29 08:00:31;;;;;;;16.92;6.72;;;7.60;99.90;;;;;;5083886;28;20040;-88
2022/03/29 08:02:52;;;;;;;21.95;8.20;;;7.70;99.90;;;;;;5083662;28;20519;-87
2022/03/29 08:05:19;;;;;;;20.92;7.70;;;7.70;99.90;;;;;;5113451;28;20047;-87
2022/03/29 08:07:45;;;;;;;30.58;8.25;;;7.80;99.90;;;;;;5110599;28;20368;-87
2022/03/29 08:10:12;;;;;;;21.13;7.50;;;7.80;99.90;;;;;;5106617;28;20044;-88
2022/03/29 08:12:42;;;;;;;21.33;6.95;;;7.90;99.90;;;;;;5112413;28;20035;-90
2022/03/29 08:15:10;;;;;;;21.23;5.93;;;7.80;99.90;;;;;;5083221;28;20055;-89
2022/03/29 08:17:36;;;;;;;26.75;6.00;;;7.70;99.90;;;;;;5091013;28;20046;-88
2022/03/29 08:20:05;;;;;;;20.85;6.22;;;7.90;99.90;;;;;;5088062;28;20050;-89
2022/03/29 08:22:32;;;;;;;23.83;8.27;;;8.00;99.90;;;;;;5116829;28;20521;-89
2022/03/29 08:24:58;;;;;;;21.48;7.65;;;8.00;99.90;;;;;;5105184;28;20399;-87
2022/03/29 08:27:24;;;;;;;21.88;7.50;;;7.90;99.90;;;;;;5117124;28;20044;-88
2022/03/29 08:29:50;;;;;;;24.77;7.28;;;8.00;99.90;;;;;;5111944;28;20044;-88
2022/03/29 08:32:16;;;;;;;19.55;7.03;;;8.00;99.90;;;;;;5111069;28;20039;-87
2022/03/29 08:34:42;;;;;;;22.27;8.07;;;8.00;99.90;;;;;;5097765;28;20466;-87
2022/03/29 08:37:07;;;;;;;24.33;7.05;;;8.10;99.90;;;;;;5095289;28;20506;-86
2022/03/29 08:39:33;;;;;;;24.00;6.47;;;8.10;99.90;;;;;;5095103;28;20036;-88
2022/03/29 08:42:05;;;;;;;21.73;6.30;;;8.10;99.90;;;;;;5096701;28;20086;-87
2022/03/29 08:44:32;;;;;;;19.52;6.22;;;8.10;99.90;;;;;;5098650;28;20089;-87
2022/03/29 08:46:58;;;;;;;25.08;7.30;;;8.20;99.90;;;;;;5110472;28;20047;-87
2022/03/29 08:49:24;;;;;;;26.45;6.43;;;8.20;99.90;;;;;;5098058;28;20505;-87
2022/03/29 08:51:51;;;;;;;18.83;6.13;;;8.30;99.90;;;;;;5109426;28;20069;-88
2022/03/29 08:54:18;;;;;;;18.80;6.50;;;8.40;99.90;;;;;;5108361;28;20415;-89
2022/03/29 08:56:44;;;;;;;17.80;6.55;;;8.40;99.90;;;;;;5115835;28;20040;-88
2022/03/29 08:59:10;;;;;;;19.25;5.55;;;8.50;99.90;;;;;;5116742;28;20054;-88
2022/03/29 09:01:35;;;;;;;18.42;6.15;;;8.50;99.90;;;;;;5113796;28;20048;-87
2022/03/29 09:04:11;;;;;;;17.30;5.88;;;8.60;99.90;;;;;;5087885;28;20052;-88
2022/03/29 09:06:58;;;;;;;15.10;5.82;;;8.70;99.90;;;;;;5078413;28;20406;-87
2022/03/29 09:09:31;;;;;;;21.83;6.30;;;8.60;99.90;;;;;;5102555;28;20044;-87
2022/03/29 09:11:58;;;;;;;;;;;8.60;99.90;;;;;;5080414;28;20052;-85
2022/03/29 09:14:29;;;;;;;19.90;6.60;;;8.60;99.90;;;;;;5106923;28;19920;-85
2022/03/29 09:16:55;;;;;;;21.35;5.75;;;8.70;99.90;;;;;;5116316;28;20051;-85
2022/03/29 09:19:24;;;;;;;20.98;6.75;;;8.80;99.90;;;;;;5116288;28;20039;-87
2022/03/29 09:21:51;;;;;;;15.15;5.03;;;8.80;99.90;;;;;;5090346;28;20044;-85
2022/03/29 09:24:18;;;;;;;20.02;6.60;;;8.80;99.90;;;;;;5115322;28;20036;-86
2022/03/29 09:26:52;;;;;;;14.52;5.78;;;8.90;99.90;;;;;;5115188;28;20050;-86
2022/03/29 09:29:23;;;;;;;17.13;7.55;;;9.00;99.90;;;;;;5116312;28;20047;-90
2022/03/29 09:32:06;;;;;;;15.30;5.82;;;9.10;99.90;;;;;;5097498;28;20048;-85
2022/03/29 09:34:33;;;;;;;15.75;5.80;;;9.20;99.90;;;;;;5097995;28;20126;-86
2022/03/29 09:37:01;;;;;;;20.05;5.97;;;9.20;99.90;;;;;;5097777;28;20103;-86
2022/03/29 09:39:38;;;;;;;20.25;4.85;;;9.30;99.90;;;;;;5096569;28;20047;-85
2022/03/29 09:42:09;;;;;;;18.15;5.70;;;9.40;99.90;;;;;;5097392;28;20058;-87
2022/03/29 09:44:41;;;;;;;12.15;5.63;;;9.50;99.90;;;;;;5098343;28;20043;-86
2022/03/29 09:47:09;;;;;;;15.27;5.43;;;9.50;99.90;;;;;;5097562;28;20051;-87
2022/03/29 09:50:01;;;;;;;20.08;5.82;;;9.50;99.90;;;;;;5115514;28;20126;-86
2022/03/29 09:52:29;;;;;;;17.33;5.65;;;9.60;99.90;;;;;;5115373;28;20509;-88
2022/03/29 09:55:04;;;;;;;20.63;6.78;;;9.60;99.90;;;;;;5097460;28;20059;-87
2022/03/29 09:57:38;;;;;;;24.67;7.25;;;9.60;99.90;;;;;;5097288;28;20058;-87
2022/03/29 10:00:07;;;;;;;24.25;7.05;;;9.80;99.90;;;;;;5097264;28;20048;-87
2022/03/29 10:02:37;;;;;;;17.92;7.00;;;9.80;99.90;;;;;;5115070;28;20048;-87
2022/03/29 10:05:04;;;;;;;20.65;7.28;;;9.90;99.90;;;;;;5115644;28;20040;-87
2022/03/29 10:09:25;;;;;;;17.38;6.38;;;9.90;99.90;;;;;;5115132;28;20046;-87
2022/03/29 10:10:39;;;;;;;16.27;6.68;;;9.90;99.90;;;;;;5096913;28;20067;-87
2022/03/29 10:13:05;;;;;;;15.93;6.30;;;9.90;99.90;;;;;;5097211;28;20043;-86
2022/03/29 10:15:31;;;;;;;17.95;5.70;;;9.90;99.90;;;;;;5097017;28;20055;-87
2022/03/29 10:18:00;;;;;;;19.77;7.28;;;9.90;99.90;;;;;;5096938;28;20471;-90
2022/03/29 10:20:25;;;;;;;21.83;7.63;;;9.90;99.90;;;;;;5096905;28;20040;-89
2022/03/29 10:22:52;;;;;;;19.52;7.13;;;10.00;99.90;;;;;;5096773;28;20042;-90
2022/03/29 10:25:18;;;;;;;19.45;7.53;;;10.10;99.90;;;;;;5115181;28;20380;-91
2022/03/29 10:27:44;;;;;;;23.58;7.15;;;10.10;99.90;;;;;;5096898;28;20499;-90
2022/03/29 10:30:10;;;;;;;17.83;7.30;;;10.10;99.90;;;;;;5096916;28;20078;-90
2022/03/29 10:32:36;;;;;;;15.63;7.40;;;10.30;99.90;;;;;;5096777;28;20048;-88
2022/03/29 10:35:11;;;;;;;21.48;7.22;;;10.40;99.90;;;;;;5096975;28;20077;-88
2022/03/29 10:37:56;;;;;;;19.48;6.90;;;10.40;99.90;;;;;;5097345;28;20122;-90
2022/03/29 10:40:37;;;;;;;16.85;6.95;;;10.40;99.90;;;;;;5097592;28;20130;-88
2022/03/29 10:43:26;;;;;;;19.63;6.90;;;10.40;99.90;;;;;;5096063;28;20039;-89
2022/03/29 10:45:51;;;;;;;22.48;7.85;;;10.50;99.90;;;;;;5096237;28;20039;-88
2022/03/29 10:48:18;;;;;;;20.08;7.82;;;10.50;99.90;;;;;;5115358;28;20605;-95
2022/03/29 10:50:46;;;;;;;22.95;8.52;;;10.40;99.90;;;;;;5096609;28;20043;-89
2022/03/29 10:53:34;;;;;;;17.42;7.82;;;10.20;99.90;;;;;;5096102;28;20134;-87
2022/03/29 10:56:20;;;;;;;23.85;9.13;;;10.30;99.90;;;;;;5114564;28;20048;-90
2022/03/29 10:59:01;;;;;;;17.48;6.72;;;10.10;99.90;;;;;;5114898;28;20100;-95
2022/03/29 11:01:27;;;;;;;20.25;8.20;;;10.20;99.90;;;;;;5096068;28;20075;-88
2022/03/29 11:04:16;;;;;;;18.88;7.43;;;10.30;99.90;;;;;;5113890;28;20059;-84
2022/03/29 11:07:08;;;;;;;20.85;7.57;;;10.30;99.90;;;;;;5095954;28;20075;-86
2022/03/29 11:09:36;;;;;;;21.90;7.43;;;10.40;99.90;;;;;;5095759;28;20055;-88
2022/03/29 11:12:03;;;;;;;19.10;8.25;;;10.40;99.90;;;;;;5095872;28;20051;-91
2022/03/29 11:14:33;;;;;;;21.85;7.38;;;10.50;99.90;;;;;;5113844;28;20402;-88
2022/03/29 11:17:14;;;;;;;17.83;7.18;;;10.60;99.90;;;;;;5095714;28;20390;-87
2022/03/29 11:19:39;;;;;;;25.95;8.45;;;10.70;99.90;;;;;;5095962;28;20076;-88
2022/03/29 11:22:28;;;;;;;23.85;8.68;;;10.70;99.90;;;;;;5095664;28;20112;-88
2022/03/29 11:25:05;;;;;;;18.95;7.60;;;10.90;99.90;;;;;;5082373;28;20483;-87
2022/03/29 11:27:33;;;;;;;22.27;7.20;;;11.00;99.90;;;;;;5095732;28;20044;-90
2022/03/29 11:30:00;;;;;;;18.73;7.40;;;11.10;99.90;;;;;;5095782;28;20130;-90
2022/03/29 11:32:26;;;;;;;20.60;7.60;;;11.10;99.90;;;;;;5113882;28;20036;-91
2022/03/29 11:34:55;;;;;;;14.45;6.85;;;11.10;99.90;;;;;;5095614;28;20490;-83
2022/03/29 11:37:29;;;;;;;22.95;7.43;;;11.10;99.90;;;;;;5095521;28;20547;-83
2022/03/29 11:39:57;;;;;;;19.35;6.55;;;10.90;99.90;;;;;;5095429;28;20040;-87
2022/03/29 11:42:23;;;;;;;23.27;7.40;;;10.70;99.90;;;;;;5113571;28;20043;-88
2022/03/29 11:44:50;;;;;;;22.98;7.13;;;10.80;99.90;;;;;;5113618;28;20131;-87
2022/03/29 11:47:15;;;;;;;15.85;7.53;;;10.90;99.90;;;;;;5113822;28;20086;-83
2022/03/29 11:49:42;;;;;;;21.52;7.22;;;11.00;99.90;;;;;;5113597;28;20079;-87
2022/03/29 11:52:18;;;;;;;24.73;7.65;;;10.80;99.90;;;;;;5095598;28;20043;-88
2022/03/29 11:54:51;;;;;;;21.70;9.18;;;10.70;99.90;;;;;;5095776;28;20107;-88
2022/03/29 11:57:17;;;;;;;18.27;7.43;;;10.70;99.90;;;;;;5099403;28;20046;-85
2022/03/29 11:59:43;;;;;;;25.52;8.93;;;10.80;99.90;;;;;;5099792;28;20043;-85
2022/03/29 12:02:09;;;;;;;25.15;8.60;;;10.90;99.90;;;;;;5099407;28;20067;-89
2022/03/29 12:04:37;;;;;;;25.17;9.73;;;11.10;99.90;;;;;;5118142;28;20074;-86
2022/03/29 12:07:04;;;;;;;23.80;8.60;;;10.90;99.90;;;;;;5099638;28;20040;-85
2022/03/29 12:09:31;;;;;;;27.23;8.80;;;10.80;99.90;;;;;;5099542;28;20483;-87
2022/03/29 12:12:03;;;;;;;19.52;7.50;;;11.00;99.90;;;;;;5099185;28;20120;-88
2022/03/29 12:14:30;;;;;;;25.17;7.95;;;11.10;99.90;;;;;;5117393;28;20379;-86
2022/03/29 12:17:03;;;;;;;24.58;8.00;;;11.20;99.90;;;;;;5099102;28;20083;-87
2022/03/29 12:19:30;;;;;;;;;;;11.10;99.90;;;;;;5099518;28;20058;-88
2022/03/29 12:22:07;;;;;;;23.45;7.55;;;11.00;99.90;;;;;;5098879;28;20014;-88
2022/03/29 12:24:34;;;;;;;24.65;8.68;;;11.20;99.90;;;;;;5099214;28;20035;-85
2022/03/29 12:27:06;;;;;;;21.45;7.95;;;11.00;99.90;;;;;;5117020;28;20035;-88
2022/03/29 12:29:44;;;;;;;16.25;7.80;;;11.00;99.90;;;;;;5098828;28;20123;-91
2022/03/29 12:32:10;;;;;;;23.05;8.80;;;10.80;99.90;;;;;;5099955;28;20046;-89
2022/03/29 12:34:39;;;;;;;27.92;8.77;;;10.80;99.90;;;;;;5117949;28;20032;-88
2022/03/29 12:37:12;;;;;;;19.58;8.75;;;10.90;99.90;;;;;;5099099;28;20045;-90
2022/03/29 12:39:45;;;;;;;;;;;11.00;99.90;;;;;;5099154;28;20176;-93
2022/03/29 12:46:00;;;;;;;21.60;10.02;;;11.10;99.90;;;;;;5039959;28;20092;-90
2022/03/29 12:48:26;;;;;;;16.10;7.78;;;11.20;99.90;;;;;;5018337;28;20096;-92
2022/03/29 12:50:53;;;;;;;20.02;8.60;;;11.20;99.90;;;;;;5064676;28;20433;-90
2022/03/29 12:53:19;;;;;;;17.33;8.73;;;11.30;99.90;;;;;;5098859;28;20047;-90
2022/03/29 12:55:55;;;;;;;18.08;8.77;;;11.30;99.90;;;;;;5098744;28;20062;-89
2022/03/29 12:58:53;;;;;;;20.95;9.52;;;11.30;99.90;;;;;;5099534;28;20402;-92